createdAt,value
2023-05-19T00:01:49.414Z,72.50
2023-05-19T00:04:16.480Z,73.18
2023-05-19T00:06:44.681Z,73.97
2023-05-19T00:09:11.940Z,74.62
2023-05-19T00:11:39.833Z,74.73
2023-05-19T00:14:09.456Z,75.01
2023-05-19T00:16:37.893Z,74.11
2023-05-19T00:19:06.393Z,74.50
2023-05-19T00:21:32.969Z,73.71
2023-05-19T00:23:59.316Z,72.82
2023-05-19T00:26:27.976Z,73.06
2023-05-19T00:28:59.508Z,72.81
2023-05-19T00:31:26.009Z,72.79
2023-05-19T00:33:52.401Z,72.46
2023-05-19T00:36:18.823Z,73.38
2023-05-19T00:38:45.174Z,73.42
2023-05-19T00:41:11.813Z,74.07
2023-05-19T00:43:38.168Z,75.16
2023-05-19T00:46:04.617Z,75.36
2023-05-19T00:48:30.963Z,77.54
2023-05-19T00:51:03.913Z,78.34
2023-05-19T00:53:33.179Z,77.93
2023-05-19T00:56:00.386Z,78.13
2023-05-19T00:58:30.578Z,77.40
2023-05-19T01:01:03.216Z,77.01
2023-05-19T01:03:35.532Z,77.04
2023-05-19T01:06:05.550Z,79.54
2023-05-19T01:08:35.620Z,78.35
2023-05-19T01:11:02.185Z,80.21
2023-05-19T01:13:29.223Z,80.62
2023-05-19T01:16:21.313Z,80.45
2023-05-19T01:18:47.775Z,82.12
2023-05-19T01:21:36.732Z,81.68
2023-05-19T01:24:24.261Z,81.36
2023-05-19T01:27:24.011Z,80.06
2023-05-19T01:30:25.288Z,79.70
2023-05-19T01:32:54.582Z,79.87
2023-05-19T01:35:24.871Z,82.16
2023-05-19T01:37:58.490Z,81.53
2023-05-19T01:40:26.562Z,82.97
2023-05-19T01:42:57.551Z,83.03
2023-05-19T01:45:26.507Z,82.95
2023-05-19T01:47:59.545Z,82.25
2023-05-19T01:50:26.324Z,84.34
2023-05-19T01:52:53.017Z,83.71
2023-05-19T01:55:21.099Z,86.27
2023-05-19T01:58:18.866Z,86.56
2023-05-19T02:00:53.261Z,86.34
2023-05-19T02:04:00.530Z,85.45
2023-05-19T02:06:33.181Z,86.63
2023-05-19T02:09:06.660Z,85.15
2023-05-19T02:11:37.990Z,85.25
2023-05-19T02:14:19.981Z,86.18
2023-05-19T02:16:48.570Z,85.64
2023-05-19T02:19:25.902Z,85.43
2023-05-19T02:21:54.867Z,86.79
2023-05-19T02:24:22.716Z,87.25
2023-05-19T02:26:50.188Z,86.75
2023-05-19T02:29:18.836Z,87.21
2023-05-19T02:31:45.304Z,87.62
2023-05-19T02:34:11.870Z,87.22
2023-05-19T02:36:40.872Z,88.08
2023-05-19T02:39:09.799Z,89.95
2023-05-19T02:41:36.831Z,88.03
2023-05-19T02:44:03.447Z,88.48
2023-05-19T02:46:30.672Z,87.82
2023-05-19T02:48:57.142Z,87.23
2023-05-19T02:51:23.506Z,86.72
2023-05-19T02:53:50.247Z,87.53
2023-05-19T02:56:16.688Z,87.35
2023-05-19T02:58:43.185Z,86.69
2023-05-19T03:01:10.037Z,88.17
2023-05-19T03:03:36.580Z,88.05
2023-05-19T03:06:03.277Z,86.38
2023-05-19T03:08:29.783Z,87.71
2023-05-19T03:10:56.147Z,87.39
2023-05-19T03:13:22.570Z,87.88
2023-05-19T03:15:50.935Z,86.82
2023-05-19T03:18:17.377Z,88.34
2023-05-19T03:20:44.624Z,87.35
2023-05-19T03:23:11.122Z,87.28
2023-05-19T03:25:37.531Z,88.19
2023-05-19T03:28:04.483Z,88.45
2023-05-19T03:30:31.137Z,87.67
2023-05-19T03:33:10.914Z,89.87
2023-05-19T03:35:37.663Z,88.51
2023-05-19T03:38:04.104Z,89.12
2023-05-19T03:40:30.606Z,88.74
2023-05-19T03:43:04.786Z,89.96
2023-05-19T03:45:33.990Z,89.02
2023-05-19T03:48:11.063Z,89.64
2023-05-19T03:50:57.945Z,91.19
2023-05-19T03:53:26.439Z,89.21
2023-05-19T03:55:53.206Z,91.61
2023-05-19T03:58:19.548Z,91.21
2023-05-19T04:00:45.950Z,92.73
2023-05-19T04:03:12.566Z,95.06
2023-05-19T04:05:40.292Z,93.08
2023-05-19T04:08:06.692Z,91.93
2023-05-19T04:10:33.891Z,90.76
2023-05-19T04:13:00.529Z,89.74
2023-05-19T04:15:27.174Z,90.40
2023-05-19T04:17:53.608Z,91.01
2023-05-19T04:20:20.061Z,90.94
2023-05-19T04:22:46.419Z,90.61
2023-05-19T04:25:13.219Z,93.25
2023-05-19T04:27:39.628Z,92.67
2023-05-19T04:30:06.959Z,91.99
2023-05-19T04:32:34.420Z,95.48
2023-05-19T04:35:00.857Z,94.78
2023-05-19T04:37:29.848Z,95.21
2023-05-19T04:39:57.055Z,94.32
2023-05-19T04:42:26.034Z,95.42
2023-05-19T04:44:53.023Z,95.89
2023-05-19T04:47:21.477Z,96.86
2023-05-19T04:49:48.629Z,95.90
2023-05-19T04:52:15.888Z,94.94
2023-05-19T04:54:42.348Z,96.16
2023-05-19T04:57:12.130Z,94.22
2023-05-19T04:59:39.564Z,94.70
2023-05-19T05:02:07.829Z,92.47
2023-05-19T05:04:36.453Z,92.53
2023-05-19T05:07:03.035Z,92.88
2023-05-19T05:09:29.721Z,94.04
2023-05-19T05:11:58.783Z,95.02
2023-05-19T05:14:25.912Z,94.21
2023-05-19T05:16:52.830Z,93.13
2023-05-19T05:19:23.278Z,94.29
2023-05-19T05:21:49.988Z,94.24
2023-05-19T05:24:16.898Z,95.71
2023-05-19T05:26:48.737Z,94.32
2023-05-19T05:29:16.005Z,95.06
2023-05-19T05:31:42.443Z,94.21
2023-05-19T05:34:10.324Z,93.79
2023-05-19T05:36:36.916Z,95.04
2023-05-19T05:39:03.671Z,95.28
2023-05-19T05:41:35.162Z,95.38
2023-05-19T05:44:05.860Z,94.79
2023-05-19T05:46:32.922Z,94.80
2023-05-19T05:49:00.396Z,94.70
2023-05-19T05:51:27.051Z,94.70
2023-05-19T05:53:55.013Z,94.12
2023-05-19T05:56:27.574Z,93.12
2023-05-19T05:58:54.113Z,93.06
2023-05-19T06:01:21.835Z,90.83
2023-05-19T06:03:48.282Z,89.81
2023-05-19T06:06:19.447Z,89.26
2023-05-19T06:08:45.857Z,89.82
2023-05-19T06:11:12.397Z,87.66
2023-05-19T06:13:43.419Z,86.13
2023-05-19T06:16:15.910Z,85.00
2023-05-19T06:18:45.643Z,84.75
2023-05-19T06:21:13.250Z,83.42
2023-05-19T06:23:41.206Z,82.92
2023-05-19T06:26:09.479Z,82.78
2023-05-19T06:28:35.919Z,81.46
2023-05-19T06:31:02.342Z,83.10
2023-05-19T06:33:41.956Z,82.04
2023-05-19T06:36:09.989Z,81.60
2023-05-19T06:38:38.520Z,81.57
2023-05-19T06:41:06.738Z,81.49
2023-05-19T06:43:33.466Z,80.88
2023-05-19T06:46:03.054Z,81.95
2023-05-19T06:48:31.508Z,82.82
2023-05-19T06:50:58.742Z,81.91
2023-05-19T06:53:26.222Z,81.31
2023-05-19T06:55:58.844Z,81.61
2023-05-19T06:58:27.665Z,80.77
2023-05-19T07:00:54.338Z,79.37
2023-05-19T07:03:21.592Z,79.45
2023-05-19T07:05:48.328Z,78.04
2023-05-19T07:08:14.970Z,78.84
2023-05-19T07:10:42.097Z,78.34
2023-05-19T07:13:12.125Z,78.32
2023-05-19T07:15:38.527Z,79.82
2023-05-19T07:18:05.418Z,75.71
2023-05-19T07:20:32.040Z,77.35
2023-05-19T07:22:58.636Z,77.12
2023-05-19T07:25:26.991Z,76.09
2023-05-19T07:27:54.296Z,77.53
2023-05-19T07:30:20.649Z,76.13
2023-05-19T07:32:47.177Z,74.77
2023-05-19T07:35:13.795Z,74.67
2023-05-19T07:37:40.142Z,75.46
2023-05-19T07:40:07.880Z,73.76
2023-05-19T07:42:34.382Z,72.53
2023-05-19T07:45:01.123Z,72.51
2023-05-19T07:47:27.571Z,73.37
2023-05-19T07:49:53.891Z,74.13
2023-05-19T07:52:20.374Z,73.86
2023-05-19T07:54:46.799Z,73.39
2023-05-19T07:57:14.390Z,73.02
2023-05-19T07:59:40.776Z,71.69
2023-05-19T08:02:07.730Z,71.27
2023-05-19T08:04:34.258Z,69.67
2023-05-19T08:07:00.730Z,69.42
2023-05-19T08:09:27.179Z,70.66
2023-05-19T08:11:53.613Z,70.35
2023-05-19T08:14:22.252Z,70.44
2023-05-19T08:16:49.452Z,69.39
2023-05-19T08:19:15.856Z,68.51
2023-05-19T08:21:45.430Z,69.39
2023-05-19T08:24:11.790Z,69.80
2023-05-19T08:26:38.289Z,68.33
2023-05-19T08:29:04.677Z,68.15
2023-05-19T08:31:31.115Z,69.43
2023-05-19T08:33:57.495Z,69.83
2023-05-19T08:36:24.738Z,66.24
2023-05-19T08:38:51.458Z,63.99
2023-05-19T08:41:18.040Z,64.51
2023-05-19T08:43:45.147Z,65.70
2023-05-19T08:46:13.540Z,65.28
2023-05-19T08:48:42.452Z,63.09
2023-05-19T08:51:20.753Z,63.36
2023-05-19T08:53:50.894Z,61.77
2023-05-19T08:56:22.975Z,63.33
2023-05-19T08:58:50.790Z,63.38
2023-05-19T09:01:18.004Z,61.66
2023-05-19T09:03:46.028Z,60.93
2023-05-19T09:06:13.060Z,59.15
2023-05-19T09:08:43.944Z,60.55
2023-05-19T09:11:10.913Z,61.98
2023-05-19T09:13:37.545Z,60.95
2023-05-19T09:16:04.534Z,60.88
2023-05-19T09:18:31.338Z,57.54
2023-05-19T09:21:00.356Z,57.27
2023-05-19T09:23:32.525Z,55.95
2023-05-19T09:26:02.047Z,57.36
2023-05-19T09:28:31.480Z,56.58
2023-05-19T09:31:09.548Z,55.85
2023-05-19T09:33:37.947Z,57.21
2023-05-19T09:36:08.140Z,56.39
2023-05-19T09:38:38.604Z,53.75
2023-05-19T09:41:06.975Z,55.38
2023-05-19T09:43:34.911Z,54.94
2023-05-19T09:46:12.117Z,55.43
2023-05-19T09:48:40.775Z,55.16
2023-05-19T09:51:10.087Z,55.35
2023-05-19T09:53:36.544Z,55.00
2023-05-19T09:56:04.026Z,52.68
2023-05-19T09:58:37.619Z,51.15
2023-05-19T10:01:04.755Z,51.82
2023-05-19T10:03:32.918Z,53.48
2023-05-19T10:06:01.323Z,52.54
2023-05-19T10:08:30.193Z,51.44
2023-05-19T10:10:57.441Z,50.37
2023-05-19T10:13:24.903Z,50.48
2023-05-19T10:18:22.889Z,49.47
2023-05-19T10:20:50.138Z,51.33
2023-05-19T10:23:16.680Z,49.32
2023-05-19T10:25:44.054Z,50.19
2023-05-19T10:28:17.072Z,49.49
2023-05-19T10:30:47.468Z,46.29
2023-05-19T10:33:18.729Z,49.52
2023-05-19T10:36:08.875Z,49.69
2023-05-19T10:38:43.089Z,49.96
2023-05-19T10:41:23.628Z,49.29
2023-05-19T10:43:56.100Z,49.38
2023-05-19T10:46:30.078Z,47.63
2023-05-19T10:48:56.544Z,47.98
2023-05-19T10:51:45.361Z,48.21
2023-05-19T10:54:15.866Z,47.50
2023-05-19T10:56:47.047Z,46.89
2023-05-19T10:59:35.156Z,46.37
2023-05-19T11:02:05.931Z,45.13
2023-05-19T11:04:51.963Z,45.94
2023-05-19T11:07:20.100Z,45.51
2023-05-19T11:09:53.058Z,44.59
2023-05-19T11:12:21.684Z,46.48
2023-05-19T11:14:48.163Z,45.77
2023-05-19T11:17:16.176Z,45.68
2023-05-19T11:19:53.797Z,44.18
2023-05-19T11:22:24.583Z,45.05
2023-05-19T11:24:53.222Z,45.78
2023-05-19T11:27:33.218Z,45.85
2023-05-19T11:30:06.353Z,46.60
2023-05-19T11:32:34.320Z,43.80
2023-05-19T11:35:01.227Z,44.57
2023-05-19T11:37:31.998Z,45.54
2023-05-19T11:40:06.820Z,45.07
2023-05-19T11:42:37.049Z,44.89
2023-05-19T11:45:04.780Z,44.49
2023-05-19T11:47:42.000Z,43.37
2023-05-19T11:50:13.810Z,44.41
2023-05-19T11:52:44.734Z,45.17
2023-05-19T11:55:15.808Z,45.64
2023-05-19T11:58:02.725Z,48.06
2023-05-19T12:00:36.969Z,46.97
2023-05-19T12:03:03.853Z,47.79
2023-05-19T12:05:32.467Z,44.24
2023-05-19T12:08:00.979Z,44.45
2023-05-19T12:10:30.260Z,46.14
2023-05-19T12:12:58.314Z,45.73
2023-05-19T12:15:25.318Z,45.03
2023-05-19T12:17:57.262Z,42.46
2023-05-19T12:20:24.664Z,43.39
2023-05-19T12:22:51.684Z,45.12
2023-05-19T12:25:18.708Z,43.28
2023-05-19T12:27:45.225Z,41.05
2023-05-19T12:30:15.096Z,42.72
2023-05-19T12:32:42.626Z,40.65
2023-05-19T12:35:09.837Z,41.95
2023-05-19T12:37:40.700Z,40.17
2023-05-19T12:40:07.698Z,41.66
2023-05-19T12:42:35.567Z,42.36
2023-05-19T12:45:05.508Z,42.74
2023-05-19T12:47:36.313Z,43.97
2023-05-19T12:50:04.571Z,44.84
2023-05-19T12:52:35.188Z,44.50
2023-05-19T12:55:06.353Z,45.44
2023-05-19T12:57:44.158Z,44.07
2023-05-19T13:00:15.265Z,45.01
2023-05-19T13:03:05.692Z,44.15
2023-05-19T13:05:38.768Z,46.59
2023-05-19T13:08:14.041Z,43.19
2023-05-19T13:10:42.104Z,43.68
2023-05-19T13:13:09.690Z,45.21
2023-05-19T13:15:44.757Z,47.14
2023-05-19T13:18:12.962Z,46.71
2023-05-19T13:20:41.034Z,46.70
2023-05-19T13:23:07.557Z,46.81
2023-05-19T13:25:34.371Z,45.71
2023-05-19T13:28:04.881Z,47.03
2023-05-19T13:30:33.514Z,46.74
2023-05-19T13:33:00.209Z,47.79
2023-05-19T13:35:26.670Z,47.20
2023-05-19T13:37:53.489Z,46.28
2023-05-19T13:40:20.112Z,46.44
2023-05-19T13:42:46.657Z,47.67
2023-05-19T13:45:13.676Z,45.56
2023-05-19T13:47:40.098Z,47.04
2023-05-19T13:50:06.933Z,48.94
2023-05-19T13:52:33.557Z,47.44
2023-05-19T13:54:59.946Z,46.30
2023-05-19T13:57:26.569Z,47.82
2023-05-19T14:00:02.568Z,48.07
2023-05-19T14:02:38.558Z,47.23
2023-05-19T14:05:06.327Z,45.70
2023-05-19T14:07:34.612Z,47.19
2023-05-19T14:10:01.824Z,47.42
2023-05-19T14:12:38.120Z,47.99
2023-05-19T14:15:13.918Z,48.33
2023-05-19T14:17:40.303Z,48.99
2023-05-19T14:20:07.353Z,48.14
2023-05-19T14:22:33.749Z,47.80
2023-05-19T14:25:00.518Z,46.79
2023-05-19T14:27:26.862Z,47.61
2023-05-19T14:29:53.268Z,48.31
2023-05-19T14:32:20.159Z,46.45
2023-05-19T14:34:46.857Z,46.25
2023-05-19T14:37:13.218Z,47.12
2023-05-19T14:39:39.570Z,47.76
2023-05-19T14:42:05.900Z,46.99
2023-05-19T14:44:35.221Z,47.38
2023-05-19T14:47:02.182Z,47.64
2023-05-19T14:49:28.618Z,48.03
2023-05-19T14:51:55.064Z,48.46
2023-05-19T14:54:21.530Z,48.38
2023-05-19T14:56:48.055Z,48.79
2023-05-19T14:59:14.427Z,48.61
2023-05-19T15:01:40.862Z,47.97
2023-05-19T15:04:07.338Z,49.33
2023-05-19T15:06:33.713Z,47.44
2023-05-19T15:09:00.150Z,47.90
2023-05-19T15:11:26.534Z,47.76
2023-05-19T15:13:53.064Z,48.61
2023-05-19T15:16:19.800Z,49.27
2023-05-19T15:18:46.390Z,48.47
2023-05-19T15:21:12.874Z,47.06
2023-05-19T15:23:39.294Z,48.00
2023-05-19T15:26:05.836Z,48.64
2023-05-19T15:28:32.361Z,48.52
2023-05-19T15:30:58.943Z,48.12
2023-05-19T15:33:25.488Z,49.22
2023-05-19T15:35:52.229Z,49.52
2023-05-19T15:38:19.373Z,49.20
2023-05-19T15:40:46.580Z,50.34
2023-05-19T15:43:13.372Z,49.10
2023-05-19T15:45:39.752Z,49.84
2023-05-19T15:48:06.459Z,50.33
2023-05-19T15:50:33.003Z,49.17
2023-05-19T15:52:59.497Z,49.64
2023-05-19T15:55:25.879Z,49.93
2023-05-19T15:57:52.266Z,50.40
2023-05-19T16:00:18.898Z,50.80
2023-05-19T16:02:45.441Z,51.13
2023-05-19T16:05:11.832Z,50.98
2023-05-19T16:07:38.213Z,51.67
2023-05-19T16:10:04.992Z,52.21
2023-05-19T16:12:31.496Z,51.25
2023-05-19T16:14:57.849Z,51.87
2023-05-19T16:17:24.294Z,52.23
2023-05-19T16:19:50.668Z,52.06
2023-05-19T16:22:18.008Z,52.08
2023-05-19T16:24:44.404Z,52.19
2023-05-19T16:27:10.735Z,52.47
2023-05-19T16:29:37.126Z,52.14
2023-05-19T16:32:03.775Z,52.59
2023-05-19T16:34:30.743Z,51.30
2023-05-19T16:36:57.191Z,51.64
2023-05-19T16:39:23.574Z,52.12
2023-05-19T16:41:49.980Z,52.12
2023-05-19T16:44:18.205Z,52.78
2023-05-19T16:46:44.651Z,52.86
2023-05-19T16:49:11.229Z,53.27
2023-05-19T16:51:37.588Z,53.60
